sensor_id;sensor_type;location;lat;lon;timestamp;pressure;altitude;pressure_sealevel;temperature;humidity
62103;BME280;48077;48.104;11.702;2023-02-28T00:01:14;95924.31;;;-4.43;85.37
62103;BME280;48077;48.104;11.702;2023-02-28T00:03:38;95925.41;;;-4.45;85.31
62103;BME280;48077;48.104;11.702;2023-02-28T00:06:06;95924.13;;;-4.51;86.00
62103;BME280;48077;48.104;11.702;2023-02-28T00:08:29;95916.84;;;-4.57;86.39
62103;BME280;48077;48.104;11.702;2023-02-28T00:10:53;95934.97;;;-4.46;85.96
62103;BME280;48077;48.104;11.702;2023-02-28T00:13:16;95929.06;;;-4.48;86.06
62103;BME280;48077;48.104;11.702;2023-02-28T00:15:39;95934.28;;;-4.48;86.05
62103;BME280;48077;48.104;11.702;2023-02-28T00:18:03;95925.13;;;-4.42;85.29
62103;BME280;48077;48.104;11.702;2023-02-28T00:20:29;95924.00;;;-4.50;85.74
62103;BME280;48077;48.104;11.702;2023-02-28T00:22:53;95919.16;;;-4.54;86.20
62103;BME280;48077;48.104;11.702;2023-02-28T00:25:20;95918.03;;;-4.61;86.42
62103;BME280;48077;48.104;11.702;2023-02-28T00:27:44;95914.94;;;-4.55;85.78
62103;BME280;48077;48.104;11.702;2023-02-28T00:30:11;95901.53;;;-4.72;86.20
62103;BME280;48077;48.104;11.702;2023-02-28T00:32:35;95892.63;;;-4.79;86.88
62103;BME280;48077;48.104;11.702;2023-02-28T00:34:58;95893.16;;;-4.75;86.67
62103;BME280;48077;48.104;11.702;2023-02-28T00:37:22;95916.25;;;-4.61;87.17
62103;BME280;48077;48.104;11.702;2023-02-28T00:39:45;95906.25;;;-4.65;86.92
62103;BME280;48077;48.104;11.702;2023-02-28T00:42:08;95908.22;;;-4.58;85.95
62103;BME280;48077;48.104;11.702;2023-02-28T00:44:32;95909.66;;;-4.65;86.44
62103;BME280;48077;48.104;11.702;2023-02-28T00:46:56;95917.22;;;-4.62;86.34
62103;BME280;48077;48.104;11.702;2023-02-28T00:49:20;95906.75;;;-4.72;86.35
62103;BME280;48077;48.104;11.702;2023-02-28T00:51:43;95912.78;;;-4.71;86.48
62103;BME280;48077;48.104;11.702;2023-02-28T00:54:07;95914.44;;;-4.70;87.39
62103;BME280;48077;48.104;11.702;2023-02-28T00:56:30;95904.97;;;-4.71;87.15
62103;BME280;48077;48.104;11.702;2023-02-28T00:58:53;95892.28;;;-4.85;87.18
62103;BME280;48077;48.104;11.702;2023-02-28T01:01:17;95908.78;;;-4.75;87.36
62103;BME280;48077;48.104;11.702;2023-02-28T01:03:40;95908.94;;;-4.77;87.39
62103;BME280;48077;48.104;11.702;2023-02-28T01:06:04;95903.16;;;-4.80;87.42
62103;BME280;48077;48.104;11.702;2023-02-28T01:08:27;95907.72;;;-4.73;87.59
62103;BME280;48077;48.104;11.702;2023-02-28T01:10:51;95880.75;;;-4.93;87.52
62103;BME280;48077;48.104;11.702;2023-02-28T01:13:15;95904.97;;;-4.71;87.15
62103;BME280;48077;48.104;11.702;2023-02-28T01:15:42;95908.34;;;-4.80;87.34
62103;BME280;48077;48.104;11.702;2023-02-28T01:18:06;95902.44;;;-4.82;87.56
62103;BME280;48077;48.104;11.702;2023-02-28T01:20:29;95905.44;;;-4.87;87.60
62103;BME280;48077;48.104;11.702;2023-02-28T01:22:53;95881.53;;;-5.02;87.57
62103;BME280;48077;48.104;11.702;2023-02-28T01:25:16;95884.81;;;-5.00;88.05
62103;BME280;48077;48.104;11.702;2023-02-28T01:27:40;95892.78;;;-4.92;88.21
62103;BME280;48077;48.104;11.702;2023-02-28T01:30:03;95886.44;;;-4.99;88.59
62103;BME280;48077;48.104;11.702;2023-02-28T01:32:27;95887.41;;;-5.00;89.04
62103;BME280;48077;48.104;11.702;2023-02-28T01:34:50;95872.44;;;-5.07;89.30
62103;BME280;48077;48.104;11.702;2023-02-28T01:37:14;95879.75;;;-5.01;88.87
62103;BME280;48077;48.104;11.702;2023-02-28T01:39:37;95831.91;;;-5.31;88.86
62103;BME280;48077;48.104;11.702;2023-02-28T01:42:00;95885.75;;;-5.01;88.62
62103;BME280;48077;48.104;11.702;2023-02-28T01:47:18;95874.91;;;-5.06;89.17
62103;BME280;48077;48.104;11.702;2023-02-28T01:49:41;95861.84;;;-5.16;89.33
62103;BME280;48077;48.104;11.702;2023-02-28T01:52:06;95878.72;;;-5.10;89.46
62103;BME280;48077;48.104;11.702;2023-02-28T01:54:36;95865.06;;;-5.23;89.47
62103;BME280;48077;48.104;11.702;2023-02-28T01:57:11;95878.25;;;-5.15;89.38
62103;BME280;48077;48.104;11.702;2023-02-28T01:59:42;95884.44;;;-5.16;89.96
62103;BME280;48077;48.104;11.702;2023-02-28T02:02:09;95858.72;;;-5.31;90.05
62103;BME280;48077;48.104;11.702;2023-02-28T02:04:37;95851.03;;;-5.32;89.43
62103;BME280;48077;48.104;11.702;2023-02-28T02:07:02;95868.63;;;-5.24;89.79
62103;BME280;48077;48.104;11.702;2023-02-28T02:09:28;95857.22;;;-5.33;90.33
62103;BME280;48077;48.104;11.702;2023-02-28T02:11:54;95834.34;;;-5.51;90.37
62103;BME280;48077;48.104;11.702;2023-02-28T02:14:37;95876.81;;;-5.29;90.62
62103;BME280;48077;48.104;11.702;2023-02-28T02:17:20;95876.81;;;-5.29;90.58
62103;BME280;48077;48.104;11.702;2023-02-28T02:23:13;95872.94;;;-5.35;91.10
62103;BME280;48077;48.104;11.702;2023-02-28T02:25:56;95857.84;;;-5.41;91.31
62103;BME280;48077;48.104;11.702;2023-02-28T02:31:21;95867.63;;;-5.33;91.55
62103;BME280;48077;48.104;11.702;2023-02-28T02:36:28;95869.88;;;-5.40;91.91
62103;BME280;48077;48.104;11.702;2023-02-28T02:39:04;95870.56;;;-5.38;91.90
62103;BME280;48077;48.104;11.702;2023-02-28T02:41:40;95858.78;;;-5.42;91.87
62103;BME280;48077;48.104;11.702;2023-02-28T02:44:31;95867.03;;;-5.37;92.03
62103;BME280;48077;48.104;11.702;2023-02-28T02:47:09;95851.22;;;-5.45;92.22
62103;BME280;48077;48.104;11.702;2023-02-28T02:49:35;95850.41;;;-5.45;91.82
62103;BME280;48077;48.104;11.702;2023-02-28T02:52:04;95832.75;;;-5.63;92.04
62103;BME280;48077;48.104;11.702;2023-02-28T02:54:33;95857.84;;;-5.41;92.33
62103;BME280;48077;48.104;11.702;2023-02-28T02:57:01;95857.72;;;-5.39;92.62
62103;BME280;48077;48.104;11.702;2023-02-28T02:59:28;95861.13;;;-5.39;92.80
62103;BME280;48077;48.104;11.702;2023-02-28T03:01:54;95860.16;;;-5.38;92.71
62103;BME280;48077;48.104;11.702;2023-02-28T03:04:21;95859.47;;;-5.40;92.85
62103;BME280;48077;48.104;11.702;2023-02-28T03:06:45;95836.84;;;-5.49;92.81
62103;BME280;48077;48.104;11.702;2023-02-28T03:09:11;95844.50;;;-5.47;93.19
62103;BME280;48077;48.104;11.702;2023-02-28T03:11:35;95830.94;;;-5.51;93.17
62103;BME280;48077;48.104;11.702;2023-02-28T03:19:34;95857.44;;;-5.36;93.24
62103;BME280;48077;48.104;11.702;2023-02-28T03:24:50;95840.56;;;-5.42;93.19
62103;BME280;48077;48.104;11.702;2023-02-28T03:27:25;95850.16;;;-5.42;93.45
62103;BME280;48077;48.104;11.702;2023-02-28T03:32:42;95862.91;;;-5.39;93.70
62103;BME280;48077;48.104;11.702;2023-02-28T03:35:18;95865.00;;;-5.33;93.40
62103;BME280;48077;48.104;11.702;2023-02-28T03:37:45;95859.13;;;-5.35;93.51
62103;BME280;48077;48.104;11.702;2023-02-28T03:40:15;95856.16;;;-5.42;93.47
62103;BME280;48077;48.104;11.702;2023-02-28T03:42:43;95864.66;;;-5.40;94.14
62103;BME280;48077;48.104;11.702;2023-02-28T03:45:13;95855.72;;;-5.47;94.02
62103;BME280;48077;48.104;11.702;2023-02-28T03:47:46;95865.06;;;-5.44;94.29
62103;BME280;48077;48.104;11.702;2023-02-28T03:50:39;95857.75;;;-5.51;94.54
62103;BME280;48077;48.104;11.702;2023-02-28T03:53:23;95857.31;;;-5.56;94.89
62103;BME280;48077;48.104;11.702;2023-02-28T03:55:52;95876.53;;;-5.47;95.00
62103;BME280;48077;48.104;11.702;2023-02-28T04:01:00;95875.25;;;-5.53;95.18
62103;BME280;48077;48.104;11.702;2023-02-28T04:03:30;95877.41;;;-5.58;94.80
62103;BME280;48077;48.104;11.702;2023-02-28T04:05:55;95875.03;;;-5.61;94.87
62103;BME280;48077;48.104;11.702;2023-02-28T04:08:20;95870.59;;;-5.70;95.28
62103;BME280;48077;48.104;11.702;2023-02-28T04:10:50;95883.78;;;-5.62;95.12
62103;BME280;48077;48.104;11.702;2023-02-28T04:13:16;95895.38;;;-5.66;95.18
62103;BME280;48077;48.104;11.702;2023-02-28T04:15:39;95878.06;;;-5.77;95.49
62103;BME280;48077;48.104;11.702;2023-02-28T04:18:02;95868.75;;;-5.91;95.08
62103;BME280;48077;48.104;11.702;2023-02-28T04:20:26;95879.25;;;-5.92;95.45
62103;BME280;48077;48.104;11.702;2023-02-28T04:22:49;95893.66;;;-5.77;95.77
62103;BME280;48077;48.104;11.702;2023-02-28T04:25:12;95883.75;;;-5.83;95.83
62103;BME280;48077;48.104;11.702;2023-02-28T04:27:36;95899.66;;;-5.76;96.24
62103;BME280;48077;48.104;11.702;2023-02-28T04:29:59;95880.44;;;-5.85;96.47
62103;BME280;48077;48.104;11.702;2023-02-28T04:32:22;95868.75;;;-5.91;96.95
62103;BME280;48077;48.104;11.702;2023-02-28T04:34:46;95892.69;;;-5.76;96.83
62103;BME280;48077;48.104;11.702;2023-02-28T04:37:09;95891.88;;;-5.76;97.05
62103;BME280;48077;48.104;11.702;2023-02-28T04:39:35;95893.88;;;-5.68;97.36
62103;BME280;48077;48.104;11.702;2023-02-28T04:41:59;95895.00;;;-5.61;97.15
62103;BME280;48077;48.104;11.702;2023-02-28T04:44:23;95904.59;;;-5.62;97.19
62103;BME280;48077;48.104;11.702;2023-02-28T04:46:47;95895.06;;;-5.73;96.86
62103;BME280;48077;48.104;11.702;2023-02-28T04:49:11;95906.22;;;-5.61;97.19
62103;BME280;48077;48.104;11.702;2023-02-28T04:51:35;95882.28;;;-5.76;97.05
62103;BME280;48077;48.104;11.702;2023-02-28T04:53:58;95892.03;;;-5.57;97.29
62103;BME280;48077;48.104;11.702;2023-02-28T04:56:22;95870.72;;;-5.72;97.56
62103;BME280;48077;48.104;11.702;2023-02-28T04:58:46;95903.25;;;-5.56;97.47
62103;BME280;48077;48.104;11.702;2023-02-28T05:01:19;95881.22;;;-5.73;97.56
62103;BME280;48077;48.104;11.702;2023-02-28T05:03:44;95876.00;;;-5.73;97.19
62103;BME280;48077;48.104;11.702;2023-02-28T05:06:08;95883.22;;;-5.65;97.33
62103;BME280;48077;48.104;11.702;2023-02-28T05:08:32;95901.50;;;-5.56;97.97
62103;BME280;48077;48.104;11.702;2023-02-28T05:10:55;95914.69;;;-5.47;97.96
62103;BME280;48077;48.104;11.702;2023-02-28T05:13:19;95906.06;;;-5.48;98.02
62103;BME280;48077;48.104;11.702;2023-02-28T05:15:42;95919.84;;;-5.36;98.47
62103;BME280;48077;48.104;11.702;2023-02-28T05:18:05;95908.47;;;-5.24;97.17
62103;BME280;48077;48.104;11.702;2023-02-28T05:20:31;95920.38;;;-5.21;97.56
62103;BME280;48077;48.104;11.702;2023-02-28T05:22:54;95918.84;;;-5.24;97.98
62103;BME280;48077;48.104;11.702;2023-02-28T05:25:21;95906.25;;;-5.29;98.22
62103;BME280;48077;48.104;11.702;2023-02-28T05:27:47;95922.28;;;-5.02;97.73
62103;BME280;48077;48.104;11.702;2023-02-28T05:30:11;95907.69;;;-5.15;98.01
62103;BME280;48077;48.104;11.702;2023-02-28T05:32:34;95909.78;;;-5.09;97.90
62103;BME280;48077;48.104;11.702;2023-02-28T05:35:01;95929.47;;;-4.95;97.97
62103;BME280;48077;48.104;11.702;2023-02-28T05:37:24;95922.09;;;-4.90;97.91
62103;BME280;48077;48.104;11.702;2023-02-28T05:39:47;95890.16;;;-5.01;96.81
62103;BME280;48077;48.104;11.702;2023-02-28T05:42:11;95932.47;;;-4.78;97.34
62103;BME280;48077;48.104;11.702;2023-02-28T05:44:35;95896.16;;;-4.80;96.58
62103;BME280;48077;48.104;11.702;2023-02-28T05:46:58;95895.84;;;-4.86;96.99
62103;BME280;48077;48.104;11.702;2023-02-28T05:49:22;95921.63;;;-4.62;96.44
62103;BME280;48077;48.104;11.702;2023-02-28T05:51:45;95912.06;;;-4.73;96.89
62103;BME280;48077;48.104;11.702;2023-02-28T05:54:08;95877.53;;;-4.75;95.29
62103;BME280;48077;48.104;11.702;2023-02-28T05:56:32;95920.44;;;-4.49;95.01
62103;BME280;48077;48.104;11.702;2023-02-28T05:58:57;95905.84;;;-4.61;95.57
62103;BME280;48077;48.104;11.702;2023-02-28T06:01:44;95904.72;;;-4.68;95.10
62103;BME280;48077;48.104;11.702;2023-02-28T06:04:11;95932.19;;;-4.54;95.60
62103;BME280;48077;48.104;11.702;2023-02-28T06:06:34;95929.94;;;-4.38;94.64
62103;BME280;48077;48.104;11.702;2023-02-28T06:08:59;95934.47;;;-4.40;94.39
62103;BME280;48077;48.104;11.702;2023-02-28T06:11:22;95938.03;;;-4.41;94.83
62103;BME280;48077;48.104;11.702;2023-02-28T06:13:53;95927.50;;;-4.30;93.77
62103;BME280;48077;48.104;11.702;2023-02-28T06:16:17;95933.91;;;-4.43;94.16
62103;BME280;48077;48.104;11.702;2023-02-28T06:18:40;95943.16;;;-4.30;94.41
62103;BME280;48077;48.104;11.702;2023-02-28T06:21:04;95942.63;;;-4.23;93.08
62103;BME280;48077;48.104;11.702;2023-02-28T06:23:28;95949.22;;;-4.19;93.03
62103;BME280;48077;48.104;11.702;2023-02-28T06:25:51;95947.97;;;-4.25;93.86
62103;BME280;48077;48.104;11.702;2023-02-28T06:28:16;95943.53;;;-4.34;93.84
62103;BME280;48077;48.104;11.702;2023-02-28T06:30:39;95956.47;;;-3.92;91.37
62103;BME280;48077;48.104;11.702;2023-02-28T06:33:02;95933.59;;;-4.19;91.77
62103;BME280;48077;48.104;11.702;2023-02-28T06:35:26;95938.47;;;-4.05;90.83
62103;BME280;48077;48.104;11.702;2023-02-28T06:37:49;95956.97;;;-4.08;91.97
62103;BME280;48077;48.104;11.702;2023-02-28T06:40:13;95940.16;;;-4.25;92.96
62103;BME280;48077;48.104;11.702;2023-02-28T06:42:37;95948.53;;;-4.21;92.66
62103;BME280;48077;48.104;11.702;2023-02-28T06:45:00;95955.66;;;-4.23;93.02
62103;BME280;48077;48.104;11.702;2023-02-28T06:47:26;95949.75;;;-4.25;92.72
62103;BME280;48077;48.104;11.702;2023-02-28T06:49:50;95973.41;;;-4.08;92.35
62103;BME280;48077;48.104;11.702;2023-02-28T06:52:14;95950.91;;;-4.18;92.27
62103;BME280;48077;48.104;11.702;2023-02-28T06:54:37;95939.94;;;-4.12;91.76
62103;BME280;48077;48.104;11.702;2023-02-28T06:57:01;95958.38;;;-4.04;91.81
62103;BME280;48077;48.104;11.702;2023-02-28T06:59:24;95965.09;;;-3.92;91.07
62103;BME280;48077;48.104;11.702;2023-02-28T07:01:48;95971.16;;;-3.91;91.55
62103;BME280;48077;48.104;11.702;2023-02-28T07:04:11;95981.97;;;-3.55;89.59
62103;BME280;48077;48.104;11.702;2023-02-28T07:06:36;95981.59;;;-3.81;90.43
62103;BME280;48077;48.104;11.702;2023-02-28T07:08:59;95986.81;;;-3.91;91.51
62103;BME280;48077;48.104;11.702;2023-02-28T07:11:24;95991.91;;;-3.80;90.84
62103;BME280;48077;48.104;11.702;2023-02-28T07:13:49;95991.50;;;-3.85;91.35
62103;BME280;48077;48.104;11.702;2023-02-28T07:16:14;95978.69;;;-3.98;92.36
62103;BME280;48077;48.104;11.702;2023-02-28T07:18:37;95989.00;;;-3.87;92.68
62103;BME280;48077;48.104;11.702;2023-02-28T07:21:03;95990.50;;;-3.84;92.71
62103;BME280;48077;48.104;11.702;2023-02-28T07:23:30;95984.66;;;-3.76;90.37
62103;BME280;48077;48.104;11.702;2023-02-28T07:25:56;95960.75;;;-3.91;91.16
62103;BME280;48077;48.104;11.702;2023-02-28T07:28:19;95964.44;;;-3.84;89.68
62103;BME280;48077;48.104;11.702;2023-02-28T07:30:43;95991.50;;;-3.75;90.56
62103;BME280;48077;48.104;11.702;2023-02-28T07:33:06;95965.88;;;-3.60;89.13
62103;BME280;48077;48.104;11.702;2023-02-28T07:35:30;95993.91;;;-3.62;89.72
62103;BME280;48077;48.104;11.702;2023-02-28T07:37:53;95984.53;;;-3.65;89.98
62103;BME280;48077;48.104;11.702;2023-02-28T07:40:17;95972.44;;;-3.76;90.50
62103;BME280;48077;48.104;11.702;2023-02-28T07:42:41;95971.50;;;-3.75;90.78
62103;BME280;48077;48.104;11.702;2023-02-28T07:45:05;95989.50;;;-3.62;91.04
62103;BME280;48077;48.104;11.702;2023-02-28T07:47:29;95980.75;;;-3.51;89.53
62103;BME280;48077;48.104;11.702;2023-02-28T07:49:53;95974.81;;;-3.63;89.55
62103;BME280;48077;48.104;11.702;2023-02-28T07:52:16;95982.00;;;-3.46;88.07
62103;BME280;48077;48.104;11.702;2023-02-28T07:54:40;95981.69;;;-3.52;88.10
62103;BME280;48077;48.104;11.702;2023-02-28T07:57:03;95977.84;;;-3.58;89.11
62103;BME280;48077;48.104;11.702;2023-02-28T07:59:26;95996.00;;;-3.27;87.57
62103;BME280;48077;48.104;11.702;2023-02-28T08:01:50;95972.63;;;-3.58;88.03
62103;BME280;48077;48.104;11.702;2023-02-28T08:04:14;95988.56;;;-3.51;88.74
62103;BME280;48077;48.104;11.702;2023-02-28T08:06:37;95999.41;;;-3.46;88.55
62103;BME280;48077;48.104;11.702;2023-02-28T08:09:00;95992.00;;;-3.51;88.90
62103;BME280;48077;48.104;11.702;2023-02-28T08:11:24;95986.91;;;-3.52;88.70
62103;BME280;48077;48.104;11.702;2023-02-28T08:13:47;96009.59;;;-3.43;89.02
62103;BME280;48077;48.104;11.702;2023-02-28T08:16:12;96008.22;;;-3.47;89.05
62103;BME280;48077;48.104;11.702;2023-02-28T08:18:40;96003.03;;;-3.28;87.40
62103;BME280;48077;48.104;11.702;2023-02-28T08:21:08;95993.50;;;-3.48;87.72
62103;BME280;48077;48.104;11.702;2023-02-28T08:23:31;96007.28;;;-3.36;87.51
62103;BME280;48077;48.104;11.702;2023-02-28T08:25:58;96007.97;;;-3.34;88.13
62103;BME280;48077;48.104;11.702;2023-02-28T08:28:22;96006.97;;;-3.43;88.63
62103;BME280;48077;48.104;11.702;2023-02-28T08:30:46;96004.50;;;-3.44;88.78
62103;BME280;48077;48.104;11.702;2023-02-28T08:33:09;96005.63;;;-3.37;89.47
62103;BME280;48077;48.104;11.702;2023-02-28T08:35:35;96011.81;;;-3.29;89.18
62103;BME280;48077;48.104;11.702;2023-02-28T08:37:58;96015.97;;;-3.16;88.66
62103;BME280;48077;48.104;11.702;2023-02-28T08:40:22;96009.50;;;-3.22;88.43
62103;BME280;48077;48.104;11.702;2023-02-28T08:42:45;96008.16;;;-3.16;87.54
62103;BME280;48077;48.104;11.702;2023-02-28T08:45:09;96018.16;;;-3.12;88.05
62103;BME280;48077;48.104;11.702;2023-02-28T08:47:33;96023.66;;;-3.15;87.68
62103;BME280;48077;48.104;11.702;2023-02-28T08:49:56;96031.50;;;-3.05;86.88
62103;BME280;48077;48.104;11.702;2023-02-28T08:52:19;96031.91;;;-3.10;87.23
62103;BME280;48077;48.104;11.702;2023-02-28T08:54:43;96024.66;;;-3.06;87.58
62103;BME280;48077;48.104;11.702;2023-02-28T08:57:06;96028.91;;;-2.86;84.49
62103;BME280;48077;48.104;11.702;2023-02-28T08:59:30;96030.69;;;-2.96;85.75
62103;BME280;48077;48.104;11.702;2023-02-28T09:01:53;96025.88;;;-3.00;86.41
62103;BME280;48077;48.104;11.702;2023-02-28T09:04:16;96030.84;;;-2.97;86.41
62103;BME280;48077;48.104;11.702;2023-02-28T09:06:40;96026.41;;;-3.07;86.36
62103;BME280;48077;48.104;11.702;2023-02-28T09:09:03;96024.63;;;-2.96;85.78
62103;BME280;48077;48.104;11.702;2023-02-28T09:11:29;96027.25;;;-2.96;86.54
62103;BME280;48077;48.104;11.702;2023-02-28T09:13:53;96031.34;;;-2.94;86.73
62103;BME280;48077;48.104;11.702;2023-02-28T09:16:17;96040.88;;;-2.83;87.07
62103;BME280;48077;48.104;11.702;2023-02-28T09:18:40;96026.56;;;-2.89;87.32
62103;BME280;48077;48.104;11.702;2023-02-28T09:21:05;96027.81;;;-2.83;86.03
62103;BME280;48077;48.104;11.702;2023-02-28T09:23:29;96012.31;;;-2.75;84.13
62103;BME280;48077;48.104;11.702;2023-02-28T09:25:54;96030.03;;;-2.78;83.92
62103;BME280;48077;48.104;11.702;2023-02-28T09:28:18;96053.53;;;-2.69;85.11
62103;BME280;48077;48.104;11.702;2023-02-28T09:30:41;96041.00;;;-2.65;82.69
62103;BME280;48077;48.104;11.702;2023-02-28T09:33:04;96041.69;;;-2.63;82.91
62103;BME280;48077;48.104;11.702;2023-02-28T09:35:28;96062.59;;;-2.63;84.21
62103;BME280;48077;48.104;11.702;2023-02-28T09:37:51;96046.94;;;-2.73;84.55
62103;BME280;48077;48.104;11.702;2023-02-28T09:40:15;96053.38;;;-2.67;84.55
62103;BME280;48077;48.104;11.702;2023-02-28T09:42:41;96055.47;;;-2.71;84.90
62103;BME280;48077;48.104;11.702;2023-02-28T09:45:17;96060.81;;;-2.62;85.01
62103;BME280;48077;48.104;11.702;2023-02-28T09:47:45;96062.03;;;-2.57;84.77
62103;BME280;48077;48.104;11.702;2023-02-28T09:52:56;96070.84;;;-2.48;84.77
62103;BME280;48077;48.104;11.702;2023-02-28T09:55:31;96074.41;;;-2.30;84.49
62103;BME280;48077;48.104;11.702;2023-02-28T09:57:57;96081.94;;;-2.07;81.82
62103;BME280;48077;48.104;11.702;2023-02-28T10:00:30;96077.97;;;-2.11;82.18
62103;BME280;48077;48.104;11.702;2023-02-28T10:10:57;96081.91;;;-1.88;80.20
62103;BME280;48077;48.104;11.702;2023-02-28T10:13:27;96084.69;;;-1.89;80.13
62103;BME280;48077;48.104;11.702;2023-02-28T10:16:02;96067.09;;;-2.07;80.58
62103;BME280;48077;48.104;11.702;2023-02-28T10:18:31;96089.75;;;-1.88;80.69
62103;BME280;48077;48.104;11.702;2023-02-28T10:20:56;96078.59;;;-1.90;79.25
62103;BME280;48077;48.104;11.702;2023-02-28T10:23:26;96076.41;;;-1.75;79.48
62103;BME280;48077;48.104;11.702;2023-02-28T10:25:59;96073.47;;;-1.34;77.42
62103;BME280;48077;48.104;11.702;2023-02-28T10:28:25;96057.91;;;-1.36;76.95
62103;BME280;48077;48.104;11.702;2023-02-28T10:30:51;96083.56;;;-1.12;77.31
62103;BME280;48077;48.104;11.702;2023-02-28T10:33:22;96087.44;;;-0.88;76.67
62103;BME280;48077;48.104;11.702;2023-02-28T10:35:46;96087.66;;;-0.54;74.80
62103;BME280;48077;48.104;11.702;2023-02-28T10:38:18;96070.81;;;-0.33;73.68
62103;BME280;48077;48.104;11.702;2023-02-28T10:40:42;96081.19;;;0.20;68.55
62103;BME280;48077;48.104;11.702;2023-02-28T10:43:18;96084.78;;;0.19;70.83
62103;BME280;48077;48.104;11.702;2023-02-28T10:50:43;96092.22;;;0.85;67.75
62103;BME280;48077;48.104;11.702;2023-02-28T11:03:54;96101.97;;;0.66;67.98
62103;BME280;48077;48.104;11.702;2023-02-28T11:06:21;96100.81;;;0.34;68.76
62103;BME280;48077;48.104;11.702;2023-02-28T11:08:48;96070.22;;;-0.01;70.99
62103;BME280;48077;48.104;11.702;2023-02-28T11:11:12;96102.44;;;0.09;71.75
62103;BME280;48077;48.104;11.702;2023-02-28T11:13:36;96092.03;;;-0.01;71.45
62103;BME280;48077;48.104;11.702;2023-02-28T11:16:04;96092.47;;;-0.05;71.86
62103;BME280;48077;48.104;11.702;2023-02-28T11:21:01;96093.97;;;-0.03;71.56
62103;BME280;48077;48.104;11.702;2023-02-28T11:23:27;96091.91;;;0.27;71.68
62103;BME280;48077;48.104;11.702;2023-02-28T11:25:53;96075.03;;;0.30;71.30
62103;BME280;48077;48.104;11.702;2023-02-28T11:28:26;96091.69;;;0.81;69.73
62103;BME280;48077;48.104;11.702;2023-02-28T11:33:31;96077.97;;;1.71;65.64
62103;BME280;48077;48.104;11.702;2023-02-28T11:35:59;96050.72;;;1.88;64.08
62103;BME280;48077;48.104;11.702;2023-02-28T11:38:24;96062.34;;;2.27;63.68
62103;BME280;48077;48.104;11.702;2023-02-28T11:43:55;96071.00;;;3.08;62.28
62103;BME280;48077;48.104;11.702;2023-02-28T11:49:12;96061.53;;;2.90;61.29
62103;BME280;48077;48.104;11.702;2023-02-28T11:51:48;96073.34;;;2.47;62.35
62103;BME280;48077;48.104;11.702;2023-02-28T11:55:20;96062.72;;;2.15;63.14
62103;BME280;48077;48.104;11.702;2023-02-28T12:00:19;96061.19;;;1.39;64.05
62103;BME280;48077;48.104;11.702;2023-02-28T12:06:04;96061.00;;;1.32;65.32
62103;BME280;48077;48.104;11.702;2023-02-28T12:27:55;96026.53;;;1.93;63.77
62103;BME280;48077;48.104;11.702;2023-02-28T12:30:25;96037.38;;;2.06;63.52
62103;BME280;48077;48.104;11.702;2023-02-28T12:32:56;96043.28;;;2.16;61.96
62103;BME280;48077;48.104;11.702;2023-02-28T12:35:28;96043.78;;;1.95;62.32
62103;BME280;48077;48.104;11.702;2023-02-28T12:38:05;96037.88;;;1.44;64.78
62103;BME280;48077;48.104;11.702;2023-02-28T12:40:42;96025.22;;;1.31;64.72
62103;BME280;48077;48.104;11.702;2023-02-28T12:43:08;96010.72;;;1.35;65.58
62103;BME280;48077;48.104;11.702;2023-02-28T12:45:46;96027.34;;;1.85;65.35
62103;BME280;48077;48.104;11.702;2023-02-28T12:48:15;96013.38;;;1.93;63.58
62103;BME280;48077;48.104;11.702;2023-02-28T12:50:43;96020.25;;;2.10;63.07
62103;BME280;48077;48.104;11.702;2023-02-28T12:53:15;96003.69;;;1.77;64.47
62103;BME280;48077;48.104;11.702;2023-02-28T12:58:34;96025.56;;;1.86;62.98
62103;BME280;48077;48.104;11.702;2023-02-28T13:07:08;96020.13;;;1.46;64.11
62103;BME280;48077;48.104;11.702;2023-02-28T13:09:36;96029.16;;;1.44;64.95
62103;BME280;48077;48.104;11.702;2023-02-28T13:12:00;96004.47;;;1.12;65.24
62103;BME280;48077;48.104;11.702;2023-02-28T13:14:36;96028.94;;;1.12;67.08
62103;BME280;48077;48.104;11.702;2023-02-28T13:17:01;96035.34;;;1.10;66.76
62103;BME280;48077;48.104;11.702;2023-02-28T13:19:28;96007.88;;;0.88;67.23
62103;BME280;48077;48.104;11.702;2023-02-28T13:21:52;96031.88;;;1.01;66.90
62103;BME280;48077;48.104;11.702;2023-02-28T13:24:49;96033.16;;;0.97;67.35
62103;BME280;48077;48.104;11.702;2023-02-28T13:29:39;96012.50;;;1.10;65.10
62103;BME280;48077;48.104;11.702;2023-02-28T13:34:34;96028.81;;;1.30;66.72
62103;BME280;48077;48.104;11.702;2023-02-28T13:39:51;96031.78;;;1.52;65.69
62103;BME280;48077;48.104;11.702;2023-02-28T13:48:33;96015.72;;;1.71;65.88
62103;BME280;48077;48.104;11.702;2023-02-28T13:50:38;96034.78;;;1.90;65.77
62103;BME280;48077;48.104;11.702;2023-02-28T13:58:32;96022.97;;;2.50;64.26
62103;BME280;48077;48.104;11.702;2023-02-28T14:06:35;96033.09;;;2.21;65.08
62103;BME280;48077;48.104;11.702;2023-02-28T14:11:40;96027.03;;;2.13;64.06
62103;BME280;48077;48.104;11.702;2023-02-28T14:14:05;96021.44;;;1.99;63.96
62103;BME280;48077;48.104;11.702;2023-02-28T14:16:44;96029.81;;;1.87;65.17
62103;BME280;48077;48.104;11.702;2023-02-28T14:19:25;96035.59;;;1.74;66.08
62103;BME280;48077;48.104;11.702;2023-02-28T14:27:14;96025.56;;;1.86;66.79
62103;BME280;48077;48.104;11.702;2023-02-28T14:37:47;96025.72;;;1.68;66.43
62103;BME280;48077;48.104;11.702;2023-02-28T14:40:15;95980.69;;;1.46;66.67
62103;BME280;48077;48.104;11.702;2023-02-28T14:42:56;96010.94;;;1.58;67.13
62103;BME280;48077;48.104;11.702;2023-02-28T14:45:20;96011.41;;;1.62;66.85
62103;BME280;48077;48.104;11.702;2023-02-28T14:47:44;95997.28;;;1.55;65.77
62103;BME280;48077;48.104;11.702;2023-02-28T14:50:18;96016.84;;;1.69;64.94
62103;BME280;48077;48.104;11.702;2023-02-28T14:52:43;96012.91;;;1.56;66.67
62103;BME280;48077;48.104;11.702;2023-02-28T14:55:13;96018.16;;;1.56;67.58
62103;BME280;48077;48.104;11.702;2023-02-28T14:57:50;95989.22;;;1.32;67.86
62103;BME280;48077;48.104;11.702;2023-02-28T15:00:25;96023.91;;;1.52;65.02
62103;BME280;48077;48.104;11.702;2023-02-28T15:02:48;96005.50;;;1.52;64.52
62103;BME280;48077;48.104;11.702;2023-02-28T15:07:36;95994.16;;;1.43;65.21
62103;BME280;48077;48.104;11.702;2023-02-28T15:10:24;96023.56;;;1.47;65.55